sensor_id;sensor_type;location;lat;lon;timestamp;P1;durP1;ratioP1;P2;durP2;ratioP2
68800;SDS011;55784;50.734;7.086;2023-12-20T00:01:00;5.00;;;1.13;;
68800;SDS011;55784;50.734;7.086;2023-12-20T00:03:25;4.53;;;1.30;;
68800;SDS011;55784;50.734;7.086;2023-12-20T00:05:50;4.60;;;1.20;;
68800;SDS011;55784;50.734;7.086;2023-12-20T00:08:16;5.03;;;1.20;;
68800;SDS011;55784;50.734;7.086;2023-12-20T00:10:42;4.70;;;1.20;;
68800;SDS011;55784;50.734;7.086;2023-12-20T00:13:08;3.88;;;1.00;;
68800;SDS011;55784;50.734;7.086;2023-12-20T00:15:34;4.83;;;1.30;;
68800;SDS011;55784;50.734;7.086;2023-12-20T00:17:59;5.15;;;1.10;;
68800;SDS011;55784;50.734;7.086;2023-12-20T00:20:25;4.57;;;1.10;;
68800;SDS011;55784;50.734;7.086;2023-12-20T00:22:51;4.13;;;1.17;;
68800;SDS011;55784;50.734;7.086;2023-12-20T00:25:16;3.97;;;1.00;;
68800;SDS011;55784;50.734;7.086;2023-12-20T00:27:41;4.80;;;1.20;;
68800;SDS011;55784;50.734;7.086;2023-12-20T00:30:07;4.80;;;1.10;;
68800;SDS011;55784;50.734;7.086;2023-12-20T00:32:33;4.50;;;1.10;;
68800;SDS011;55784;50.734;7.086;2023-12-20T00:34:59;5.50;;;1.30;;
68800;SDS011;55784;50.734;7.086;2023-12-20T00:37:24;4.43;;;1.20;;
68800;SDS011;55784;50.734;7.086;2023-12-20T00:39:50;4.35;;;1.17;;
68800;SDS011;55784;50.734;7.086;2023-12-20T00:42:15;3.97;;;1.10;;
68800;SDS011;55784;50.734;7.086;2023-12-20T00:44:41;5.00;;;1.20;;
68800;SDS011;55784;50.734;7.086;2023-12-20T00:47:06;4.80;;;0.97;;
68800;SDS011;55784;50.734;7.086;2023-12-20T00:49:31;3.97;;;1.00;;
68800;SDS011;55784;50.734;7.086;2023-12-20T00:51:56;4.40;;;1.00;;
68800;SDS011;55784;50.734;7.086;2023-12-20T00:54:22;4.43;;;1.13;;
68800;SDS011;55784;50.734;7.086;2023-12-20T00:56:47;4.00;;;0.93;;
68800;SDS011;55784;50.734;7.086;2023-12-20T00:59:12;4.27;;;1.00;;
68800;SDS011;55784;50.734;7.086;2023-12-20T01:01:38;3.80;;;0.90;;
68800;SDS011;55784;50.734;7.086;2023-12-20T01:04:03;3.55;;;0.93;;
68800;SDS011;55784;50.734;7.086;2023-12-20T01:06:28;3.65;;;0.80;;
68800;SDS011;55784;50.734;7.086;2023-12-20T01:08:54;4.27;;;0.90;;
68800;SDS011;55784;50.734;7.086;2023-12-20T01:11:19;4.03;;;1.03;;
68800;SDS011;55784;50.734;7.086;2023-12-20T01:13:44;3.73;;;0.93;;
68800;SDS011;55784;50.734;7.086;2023-12-20T01:16:10;4.83;;;1.20;;
68800;SDS011;55784;50.734;7.086;2023-12-20T01:18:36;4.65;;;1.17;;
68800;SDS011;55784;50.734;7.086;2023-12-20T01:21:05;6.17;;;1.60;;
68800;SDS011;55784;50.734;7.086;2023-12-20T01:23:30;6.07;;;2.00;;
68800;SDS011;55784;50.734;7.086;2023-12-20T01:25:56;6.50;;;2.05;;
68800;SDS011;55784;50.734;7.086;2023-12-20T01:28:21;7.05;;;2.33;;
68800;SDS011;55784;50.734;7.086;2023-12-20T01:30:47;9.80;;;2.80;;
68800;SDS011;55784;50.734;7.086;2023-12-20T01:33:12;8.27;;;2.80;;
68800;SDS011;55784;50.734;7.086;2023-12-20T01:35:37;9.13;;;3.00;;
68800;SDS011;55784;50.734;7.086;2023-12-20T01:38:03;11.27;;;3.70;;
68800;SDS011;55784;50.734;7.086;2023-12-20T01:40:28;9.68;;;3.55;;
68800;SDS011;55784;50.734;7.086;2023-12-20T01:45:43;9.30;;;3.55;;
68800;SDS011;55784;50.734;7.086;2023-12-20T01:48:08;10.93;;;3.73;;
68800;SDS011;55784;50.734;7.086;2023-12-20T01:50:35;12.90;;;4.03;;
68800;SDS011;55784;50.734;7.086;2023-12-20T01:53:02;11.20;;;3.57;;
68800;SDS011;55784;50.734;7.086;2023-12-20T01:55:29;10.60;;;3.67;;
68800;SDS011;55784;50.734;7.086;2023-12-20T01:57:58;12.25;;;3.83;;
68800;SDS011;55784;50.734;7.086;2023-12-20T02:00:24;13.35;;;4.82;;
68800;SDS011;55784;50.734;7.086;2023-12-20T02:02:52;12.00;;;4.25;;
68800;SDS011;55784;50.734;7.086;2023-12-20T02:05:20;12.10;;;4.10;;
68800;SDS011;55784;50.734;7.086;2023-12-20T02:07:46;12.10;;;3.85;;
68800;SDS011;55784;50.734;7.086;2023-12-20T02:10:11;10.97;;;4.20;;
68800;SDS011;55784;50.734;7.086;2023-12-20T02:12:37;12.90;;;4.07;;
68800;SDS011;55784;50.734;7.086;2023-12-20T02:15:03;13.53;;;5.00;;
68800;SDS011;55784;50.734;7.086;2023-12-20T02:17:29;14.52;;;4.72;;
68800;SDS011;55784;50.734;7.086;2023-12-20T02:19:56;13.75;;;4.75;;
68800;SDS011;55784;50.734;7.086;2023-12-20T02:22:21;13.40;;;4.70;;
68800;SDS011;55784;50.734;7.086;2023-12-20T02:24:47;13.70;;;4.13;;
68800;SDS011;55784;50.734;7.086;2023-12-20T02:27:12;10.83;;;3.90;;
68800;SDS011;55784;50.734;7.086;2023-12-20T02:29:37;13.50;;;3.75;;
68800;SDS011;55784;50.734;7.086;2023-12-20T02:32:03;10.53;;;3.07;;
68800;SDS011;55784;50.734;7.086;2023-12-20T02:34:28;10.50;;;2.53;;
68800;SDS011;55784;50.734;7.086;2023-12-20T02:36:54;9.65;;;2.40;;
68800;SDS011;55784;50.734;7.086;2023-12-20T02:39:20;10.80;;;2.67;;
68800;SDS011;55784;50.734;7.086;2023-12-20T02:41:46;9.65;;;2.17;;
68800;SDS011;55784;50.734;7.086;2023-12-20T02:44:12;11.70;;;2.30;;
68800;SDS011;55784;50.734;7.086;2023-12-20T02:46:37;9.70;;;2.83;;
68800;SDS011;55784;50.734;7.086;2023-12-20T02:49:02;7.87;;;2.20;;
68800;SDS011;55784;50.734;7.086;2023-12-20T02:51:28;9.23;;;2.20;;
68800;SDS011;55784;50.734;7.086;2023-12-20T02:53:53;11.23;;;2.10;;
68800;SDS011;55784;50.734;7.086;2023-12-20T02:56:18;9.20;;;2.10;;
68800;SDS011;55784;50.734;7.086;2023-12-20T02:58:44;9.97;;;1.90;;
68800;SDS011;55784;50.734;7.086;2023-12-20T03:01:09;11.73;;;2.13;;
68800;SDS011;55784;50.734;7.086;2023-12-20T03:03:34;9.15;;;1.85;;
68800;SDS011;55784;50.734;7.086;2023-12-20T03:06:00;9.10;;;1.70;;
68800;SDS011;55784;50.734;7.086;2023-12-20T03:08:25;8.93;;;1.90;;
68800;SDS011;55784;50.734;7.086;2023-12-20T03:10:51;9.57;;;1.60;;
68800;SDS011;55784;50.734;7.086;2023-12-20T03:13:16;10.57;;;1.43;;
68800;SDS011;55784;50.734;7.086;2023-12-20T03:15:41;6.97;;;1.50;;
68800;SDS011;55784;50.734;7.086;2023-12-20T03:18:07;9.90;;;1.50;;
68800;SDS011;55784;50.734;7.086;2023-12-20T03:20:32;7.80;;;1.20;;
68800;SDS011;55784;50.734;7.086;2023-12-20T03:22:59;10.10;;;1.40;;
68800;SDS011;55784;50.734;7.086;2023-12-20T03:25:25;14.20;;;1.58;;
68800;SDS011;55784;50.734;7.086;2023-12-20T03:27:50;10.07;;;1.50;;
68800;SDS011;55784;50.734;7.086;2023-12-20T03:30:16;7.63;;;1.80;;
68800;SDS011;55784;50.734;7.086;2023-12-20T03:32:41;10.18;;;1.45;;
68800;SDS011;55784;50.734;7.086;2023-12-20T03:35:06;7.60;;;1.67;;
68800;SDS011;55784;50.734;7.086;2023-12-20T03:37:32;8.20;;;1.80;;
68800;SDS011;55784;50.734;7.086;2023-12-20T03:39:57;9.60;;;1.33;;
68800;SDS011;55784;50.734;7.086;2023-12-20T03:42:22;6.83;;;1.50;;
68800;SDS011;55784;50.734;7.086;2023-12-20T03:44:48;9.27;;;1.53;;
68800;SDS011;55784;50.734;7.086;2023-12-20T03:47:13;9.03;;;1.40;;
68800;SDS011;55784;50.734;7.086;2023-12-20T03:49:39;7.95;;;1.38;;
68800;SDS011;55784;50.734;7.086;2023-12-20T03:52:04;8.27;;;1.38;;
68800;SDS011;55784;50.734;7.086;2023-12-20T03:54:30;7.37;;;1.40;;
68800;SDS011;55784;50.734;7.086;2023-12-20T03:56:55;6.37;;;1.43;;
68800;SDS011;55784;50.734;7.086;2023-12-20T03:59:20;9.73;;;1.60;;
68800;SDS011;55784;50.734;7.086;2023-12-20T04:01:46;9.50;;;1.50;;
68800;SDS011;55784;50.734;7.086;2023-12-20T04:04:13;8.02;;;1.50;;
68800;SDS011;55784;50.734;7.086;2023-12-20T04:06:38;10.23;;;1.70;;
68800;SDS011;55784;50.734;7.086;2023-12-20T04:09:04;8.15;;;1.23;;
68800;SDS011;55784;50.734;7.086;2023-12-20T04:11:29;10.73;;;1.60;;
68800;SDS011;55784;50.734;7.086;2023-12-20T04:13:55;9.13;;;1.67;;
68800;SDS011;55784;50.734;7.086;2023-12-20T04:16:20;11.90;;;1.73;;
68800;SDS011;55784;50.734;7.086;2023-12-20T04:18:46;11.60;;;1.47;;
68800;SDS011;55784;50.734;7.086;2023-12-20T04:21:11;11.83;;;1.53;;
68800;SDS011;55784;50.734;7.086;2023-12-20T04:23:36;9.13;;;1.70;;
68800;SDS011;55784;50.734;7.086;2023-12-20T04:26:01;10.87;;;1.57;;
68800;SDS011;55784;50.734;7.086;2023-12-20T04:28:27;9.80;;;1.70;;
68800;SDS011;55784;50.734;7.086;2023-12-20T04:30:55;9.10;;;1.50;;
68800;SDS011;55784;50.734;7.086;2023-12-20T04:33:21;7.97;;;1.63;;
68800;SDS011;55784;50.734;7.086;2023-12-20T04:35:46;10.93;;;1.90;;
68800;SDS011;55784;50.734;7.086;2023-12-20T04:38:11;9.05;;;1.90;;
68800;SDS011;55784;50.734;7.086;2023-12-20T04:40:37;9.13;;;2.00;;
68800;SDS011;55784;50.734;7.086;2023-12-20T04:43:02;9.50;;;1.97;;
68800;SDS011;55784;50.734;7.086;2023-12-20T04:45:27;11.60;;;2.03;;
68800;SDS011;55784;50.734;7.086;2023-12-20T04:47:53;11.67;;;2.73;;
68800;SDS011;55784;50.734;7.086;2023-12-20T04:50:20;11.13;;;2.30;;
68800;SDS011;55784;50.734;7.086;2023-12-20T04:52:46;8.05;;;2.00;;
68800;SDS011;55784;50.734;7.086;2023-12-20T04:55:12;8.93;;;1.93;;
68800;SDS011;55784;50.734;7.086;2023-12-20T04:57:37;12.07;;;2.47;;
68800;SDS011;55784;50.734;7.086;2023-12-20T05:00:02;11.53;;;2.47;;
68800;SDS011;55784;50.734;7.086;2023-12-20T05:02:28;6.88;;;2.00;;
68800;SDS011;55784;50.734;7.086;2023-12-20T05:04:53;10.67;;;2.20;;
68800;SDS011;55784;50.734;7.086;2023-12-20T05:07:19;11.37;;;2.53;;
68800;SDS011;55784;50.734;7.086;2023-12-20T05:09:44;10.40;;;2.30;;
68800;SDS011;55784;50.734;7.086;2023-12-20T05:12:09;10.93;;;2.50;;
68800;SDS011;55784;50.734;7.086;2023-12-20T05:14:34;10.80;;;2.10;;
68800;SDS011;55784;50.734;7.086;2023-12-20T05:17:00;10.83;;;2.77;;
68800;SDS011;55784;50.734;7.086;2023-12-20T05:19:25;12.97;;;2.40;;
68800;SDS011;55784;50.734;7.086;2023-12-20T05:21:51;8.50;;;1.90;;
68800;SDS011;55784;50.734;7.086;2023-12-20T05:24:16;10.50;;;2.40;;
68800;SDS011;55784;50.734;7.086;2023-12-20T05:26:42;8.52;;;2.10;;
68800;SDS011;55784;50.734;7.086;2023-12-20T05:29:07;11.90;;;2.53;;
68800;SDS011;55784;50.734;7.086;2023-12-20T05:31:33;13.23;;;2.50;;
68800;SDS011;55784;50.734;7.086;2023-12-20T05:33:58;13.00;;;2.50;;
68800;SDS011;55784;50.734;7.086;2023-12-20T05:36:24;13.93;;;2.30;;
68800;SDS011;55784;50.734;7.086;2023-12-20T05:38:50;10.90;;;2.20;;
68800;SDS011;55784;50.734;7.086;2023-12-20T05:41:16;13.13;;;2.90;;
68800;SDS011;55784;50.734;7.086;2023-12-20T05:43:41;12.40;;;2.73;;
68800;SDS011;55784;50.734;7.086;2023-12-20T05:46:06;8.37;;;2.20;;
68800;SDS011;55784;50.734;7.086;2023-12-20T05:48:32;9.97;;;2.33;;
68800;SDS011;55784;50.734;7.086;2023-12-20T05:50:57;13.93;;;2.57;;
68800;SDS011;55784;50.734;7.086;2023-12-20T05:53:22;13.00;;;2.63;;
68800;SDS011;55784;50.734;7.086;2023-12-20T05:55:48;10.83;;;2.50;;
68800;SDS011;55784;50.734;7.086;2023-12-20T05:58:13;8.97;;;2.70;;
68800;SDS011;55784;50.734;7.086;2023-12-20T06:00:38;12.27;;;3.03;;
68800;SDS011;55784;50.734;7.086;2023-12-20T06:03:04;11.73;;;2.53;;
68800;SDS011;55784;50.734;7.086;2023-12-20T06:05:30;12.73;;;2.50;;
68800;SDS011;55784;50.734;7.086;2023-12-20T06:07:56;11.85;;;2.85;;
68800;SDS011;55784;50.734;7.086;2023-12-20T06:10:26;12.70;;;2.67;;
68800;SDS011;55784;50.734;7.086;2023-12-20T06:12:52;9.15;;;2.20;;
68800;SDS011;55784;50.734;7.086;2023-12-20T06:15:17;12.93;;;2.40;;
68800;SDS011;55784;50.734;7.086;2023-12-20T06:17:42;9.50;;;2.30;;
68800;SDS011;55784;50.734;7.086;2023-12-20T06:20:08;14.50;;;2.40;;
68800;SDS011;55784;50.734;7.086;2023-12-20T06:22:34;10.65;;;2.20;;
68800;SDS011;55784;50.734;7.086;2023-12-20T06:25:00;12.18;;;2.03;;
68800;SDS011;55784;50.734;7.086;2023-12-20T06:27:25;10.97;;;2.50;;
68800;SDS011;55784;50.734;7.086;2023-12-20T06:29:50;13.93;;;2.40;;
68800;SDS011;55784;50.734;7.086;2023-12-20T06:32:16;9.03;;;2.63;;
68800;SDS011;55784;50.734;7.086;2023-12-20T06:34:41;11.17;;;2.10;;
68800;SDS011;55784;50.734;7.086;2023-12-20T06:37:06;8.87;;;2.00;;
68800;SDS011;55784;50.734;7.086;2023-12-20T06:39:32;12.97;;;2.90;;
68800;SDS011;55784;50.734;7.086;2023-12-20T06:41:58;9.70;;;2.13;;
68800;SDS011;55784;50.734;7.086;2023-12-20T06:44:24;10.68;;;2.40;;
68800;SDS011;55784;50.734;7.086;2023-12-20T06:46:50;14.37;;;2.40;;
68800;SDS011;55784;50.734;7.086;2023-12-20T06:49:15;10.23;;;2.30;;
68800;SDS011;55784;50.734;7.086;2023-12-20T06:51:40;11.77;;;2.67;;
68800;SDS011;55784;50.734;7.086;2023-12-20T06:54:06;10.60;;;2.10;;
68800;SDS011;55784;50.734;7.086;2023-12-20T06:56:32;9.40;;;2.40;;
68800;SDS011;55784;50.734;7.086;2023-12-20T06:58:57;13.23;;;2.50;;
68800;SDS011;55784;50.734;7.086;2023-12-20T07:01:23;8.63;;;2.10;;
68800;SDS011;55784;50.734;7.086;2023-12-20T07:03:48;11.45;;;2.10;;
68800;SDS011;55784;50.734;7.086;2023-12-20T07:06:13;10.70;;;2.40;;
68800;SDS011;55784;50.734;7.086;2023-12-20T07:08:41;9.30;;;2.05;;
68800;SDS011;55784;50.734;7.086;2023-12-20T07:11:06;14.47;;;2.87;;
68800;SDS011;55784;50.734;7.086;2023-12-20T07:13:32;13.43;;;2.47;;
68800;SDS011;55784;50.734;7.086;2023-12-20T07:15:57;11.33;;;2.30;;
68800;SDS011;55784;50.734;7.086;2023-12-20T07:18:23;9.65;;;2.08;;
68800;SDS011;55784;50.734;7.086;2023-12-20T07:20:48;10.50;;;2.08;;
68800;SDS011;55784;50.734;7.086;2023-12-20T07:23:13;9.30;;;2.10;;
68800;SDS011;55784;50.734;7.086;2023-12-20T07:25:39;13.77;;;2.60;;
68800;SDS011;55784;50.734;7.086;2023-12-20T07:28:04;11.37;;;2.20;;
68800;SDS011;55784;50.734;7.086;2023-12-20T07:30:30;11.18;;;2.50;;
68800;SDS011;55784;50.734;7.086;2023-12-20T07:32:55;11.17;;;2.00;;
68800;SDS011;55784;50.734;7.086;2023-12-20T07:35:21;10.25;;;2.22;;
68800;SDS011;55784;50.734;7.086;2023-12-20T07:37:48;9.95;;;2.00;;
68800;SDS011;55784;50.734;7.086;2023-12-20T07:40:13;11.37;;;2.20;;
68800;SDS011;55784;50.734;7.086;2023-12-20T07:42:38;8.68;;;2.00;;
68800;SDS011;55784;50.734;7.086;2023-12-20T07:45:04;11.73;;;2.20;;
68800;SDS011;55784;50.734;7.086;2023-12-20T07:47:29;10.97;;;1.93;;
68800;SDS011;55784;50.734;7.086;2023-12-20T07:49:55;12.27;;;2.27;;
68800;SDS011;55784;50.734;7.086;2023-12-20T07:52:20;13.82;;;2.03;;
68800;SDS011;55784;50.734;7.086;2023-12-20T07:54:47;11.40;;;1.70;;
68800;SDS011;55784;50.734;7.086;2023-12-20T07:57:13;11.40;;;1.70;;
68800;SDS011;55784;50.734;7.086;2023-12-20T07:59:38;12.63;;;1.90;;
68800;SDS011;55784;50.734;7.086;2023-12-20T08:02:03;10.93;;;1.93;;
68800;SDS011;55784;50.734;7.086;2023-12-20T08:04:29;9.73;;;1.80;;
68800;SDS011;55784;50.734;7.086;2023-12-20T08:06:54;9.50;;;1.80;;
68800;SDS011;55784;50.734;7.086;2023-12-20T08:09:20;9.65;;;1.90;;
68800;SDS011;55784;50.734;7.086;2023-12-20T08:11:46;11.47;;;2.63;;
68800;SDS011;55784;50.734;7.086;2023-12-20T08:14:11;9.68;;;1.80;;
68800;SDS011;55784;50.734;7.086;2023-12-20T08:16:37;10.43;;;1.80;;
68800;SDS011;55784;50.734;7.086;2023-12-20T08:19:02;12.67;;;1.90;;
68800;SDS011;55784;50.734;7.086;2023-12-20T08:21:27;10.03;;;1.93;;
68800;SDS011;55784;50.734;7.086;2023-12-20T08:23:53;11.20;;;2.30;;
68800;SDS011;55784;50.734;7.086;2023-12-20T08:26:18;12.70;;;2.30;;
68800;SDS011;55784;50.734;7.086;2023-12-20T08:28:48;11.73;;;2.00;;
68800;SDS011;55784;50.734;7.086;2023-12-20T08:31:14;9.82;;;1.98;;
68800;SDS011;55784;50.734;7.086;2023-12-20T08:33:41;11.73;;;2.27;;
68800;SDS011;55784;50.734;7.086;2023-12-20T08:36:06;10.55;;;1.88;;
68800;SDS011;55784;50.734;7.086;2023-12-20T08:38:31;8.13;;;1.90;;
68800;SDS011;55784;50.734;7.086;2023-12-20T08:40:57;10.47;;;1.80;;
68800;SDS011;55784;50.734;7.086;2023-12-20T08:43:22;11.63;;;1.87;;
68800;SDS011;55784;50.734;7.086;2023-12-20T08:45:47;10.63;;;1.73;;
68800;SDS011;55784;50.734;7.086;2023-12-20T08:48:12;11.00;;;2.00;;
68800;SDS011;55784;50.734;7.086;2023-12-20T08:50:38;13.90;;;2.23;;
68800;SDS011;55784;50.734;7.086;2023-12-20T08:53:04;10.13;;;2.30;;
68800;SDS011;55784;50.734;7.086;2023-12-20T08:55:29;10.47;;;1.97;;
68800;SDS011;55784;50.734;7.086;2023-12-20T08:57:55;10.52;;;2.00;;
68800;SDS011;55784;50.734;7.086;2023-12-20T09:00:21;8.67;;;1.80;;
68800;SDS011;55784;50.734;7.086;2023-12-20T09:02:49;8.90;;;2.08;;
68800;SDS011;55784;50.734;7.086;2023-12-20T09:05:15;8.60;;;1.85;;
68800;SDS011;55784;50.734;7.086;2023-12-20T09:07:43;12.98;;;1.90;;
68800;SDS011;55784;50.734;7.086;2023-12-20T09:10:08;8.68;;;2.17;;
68800;SDS011;55784;50.734;7.086;2023-12-20T09:12:34;11.17;;;2.20;;
68800;SDS011;55784;50.734;7.086;2023-12-20T09:14:59;10.27;;;1.80;;
68800;SDS011;55784;50.734;7.086;2023-12-20T09:17:27;10.00;;;1.83;;
68800;SDS011;55784;50.734;7.086;2023-12-20T09:19:52;10.70;;;2.90;;
68800;SDS011;55784;50.734;7.086;2023-12-20T09:22:19;9.55;;;1.52;;
68800;SDS011;55784;50.734;7.086;2023-12-20T09:24:44;10.90;;;1.87;;
68800;SDS011;55784;50.734;7.086;2023-12-20T09:27:09;12.00;;;2.23;;
68800;SDS011;55784;50.734;7.086;2023-12-20T09:29:35;6.20;;;1.65;;
68800;SDS011;55784;50.734;7.086;2023-12-20T09:32:00;11.37;;;1.67;;
68800;SDS011;55784;50.734;7.086;2023-12-20T09:34:26;11.90;;;1.70;;
68800;SDS011;55784;50.734;7.086;2023-12-20T09:36:52;11.65;;;1.85;;
68800;SDS011;55784;50.734;7.086;2023-12-20T09:39:18;12.88;;;1.77;;
68800;SDS011;55784;50.734;7.086;2023-12-20T09:41:46;10.02;;;1.90;;
68800;SDS011;55784;50.734;7.086;2023-12-20T09:44:21;9.07;;;1.63;;
68800;SDS011;55784;50.734;7.086;2023-12-20T09:46:49;9.93;;;1.80;;
68800;SDS011;55784;50.734;7.086;2023-12-20T09:49:15;8.02;;;1.90;;
68800;SDS011;55784;50.734;7.086;2023-12-20T09:51:43;13.07;;;1.73;;
68800;SDS011;55784;50.734;7.086;2023-12-20T09:54:11;9.43;;;1.77;;
68800;SDS011;55784;50.734;7.086;2023-12-20T09:56:38;7.33;;;1.33;;
68800;SDS011;55784;50.734;7.086;2023-12-20T09:59:04;8.77;;;1.43;;
68800;SDS011;55784;50.734;7.086;2023-12-20T10:01:29;9.98;;;1.83;;
68800;SDS011;55784;50.734;7.086;2023-12-20T10:03:56;11.83;;;1.80;;
68800;SDS011;55784;50.734;7.086;2023-12-20T10:06:23;10.65;;;1.60;;
68800;SDS011;55784;50.734;7.086;2023-12-20T10:08:48;9.37;;;1.70;;
68800;SDS011;55784;50.734;7.086;2023-12-20T10:11:14;6.67;;;1.40;;
68800;SDS011;55784;50.734;7.086;2023-12-20T10:13:40;7.87;;;1.70;;
68800;SDS011;55784;50.734;7.086;2023-12-20T10:16:06;8.75;;;1.70;;
68800;SDS011;55784;50.734;7.086;2023-12-20T10:18:32;12.23;;;1.60;;
68800;SDS011;55784;50.734;7.086;2023-12-20T10:20:58;12.00;;;2.35;;
68800;SDS011;55784;50.734;7.086;2023-12-20T10:23:23;8.82;;;1.70;;
68800;SDS011;55784;50.734;7.086;2023-12-20T10:25:58;11.20;;;2.13;;
68800;SDS011;55784;50.734;7.086;2023-12-20T10:28:25;9.07;;;1.60;;
68800;SDS011;55784;50.734;7.086;2023-12-20T10:30:54;11.38;;;1.63;;
68800;SDS011;55784;50.734;7.086;2023-12-20T10:33:26;11.37;;;1.90;;
68800;SDS011;55784;50.734;7.086;2023-12-20T10:35:53;11.07;;;1.83;;
68800;SDS011;55784;50.734;7.086;2023-12-20T10:38:19;9.73;;;1.90;;
68800;SDS011;55784;50.734;7.086;2023-12-20T10:40:47;10.00;;;1.80;;
68800;SDS011;55784;50.734;7.086;2023-12-20T10:45:41;14.02;;;2.35;;
68800;SDS011;55784;50.734;7.086;2023-12-20T10:48:07;9.90;;;1.60;;
68800;SDS011;55784;50.734;7.086;2023-12-20T10:50:36;10.55;;;1.80;;
68800;SDS011;55784;50.734;7.086;2023-12-20T10:53:03;10.25;;;2.40;;
68800;SDS011;55784;50.734;7.086;2023-12-20T10:55:29;10.50;;;2.20;;
68800;SDS011;55784;50.734;7.086;2023-12-20T10:57:54;8.32;;;1.80;;
68800;SDS011;55784;50.734;7.086;2023-12-20T11:00:32;8.30;;;1.80;;
68800;SDS011;55784;50.734;7.086;2023-12-20T11:03:01;9.98;;;2.03;;
68800;SDS011;55784;50.734;7.086;2023-12-20T11:05:46;11.70;;;4.10;;
68800;SDS011;55784;50.734;7.086;2023-12-20T11:10:55;11.30;;;2.42;;
68800;SDS011;55784;50.734;7.086;2023-12-20T11:16:32;12.57;;;2.60;;
68800;SDS011;55784;50.734;7.086;2023-12-20T11:18:58;11.48;;;2.80;;
68800;SDS011;55784;50.734;7.086;2023-12-20T11:21:29;13.15;;;2.35;;
68800;SDS011;55784;50.734;7.086;2023-12-20T11:23:55;12.00;;;3.20;;
68800;SDS011;55784;50.734;7.086;2023-12-20T11:26:26;8.80;;;2.60;;
68800;SDS011;55784;50.734;7.086;2023-12-20T11:32:00;11.93;;;3.33;;
68800;SDS011;55784;50.734;7.086;2023-12-20T11:34:27;10.82;;;2.40;;
68800;SDS011;55784;50.734;7.086;2023-12-20T11:36:59;10.07;;;3.00;;
68800;SDS011;55784;50.734;7.086;2023-12-20T11:39:25;11.88;;;2.80;;
68800;SDS011;55784;50.734;7.086;2023-12-20T11:41:54;9.13;;;2.47;;
68800;SDS011;55784;50.734;7.086;2023-12-20T11:44:21;10.10;;;2.95;;
68800;SDS011;55784;50.734;7.086;2023-12-20T11:46:47;10.55;;;2.60;;
68800;SDS011;55784;50.734;7.086;2023-12-20T11:49:12;10.80;;;2.40;;
68800;SDS011;55784;50.734;7.086;2023-12-20T11:51:40;9.67;;;2.60;;
68800;SDS011;55784;50.734;7.086;2023-12-20T11:54:07;10.88;;;2.53;;
68800;SDS011;55784;50.734;7.086;2023-12-20T11:56:33;10.63;;;2.40;;
68800;SDS011;55784;50.734;7.086;2023-12-20T11:59:00;10.32;;;2.40;;
68800;SDS011;55784;50.734;7.086;2023-12-20T12:01:26;7.40;;;1.93;;
68800;SDS011;55784;50.734;7.086;2023-12-20T12:04:02;9.50;;;2.63;;
68800;SDS011;55784;50.734;7.086;2023-12-20T12:06:28;8.57;;;2.25;;
68800;SDS011;55784;50.734;7.086;2023-12-20T12:08:54;11.07;;;2.60;;
68800;SDS011;55784;50.734;7.086;2023-12-20T12:11:19;10.77;;;1.90;;
68800;SDS011;55784;50.734;7.086;2023-12-20T12:13:45;8.47;;;1.93;;
68800;SDS011;55784;50.734;7.086;2023-12-20T12:16:10;11.93;;;2.22;;
68800;SDS011;55784;50.734;7.086;2023-12-20T12:18:36;7.60;;;2.03;;
68800;SDS011;55784;50.734;7.086;2023-12-20T12:21:02;7.17;;;1.80;;
68800;SDS011;55784;50.734;7.086;2023-12-20T12:23:28;9.10;;;2.10;;
68800;SDS011;55784;50.734;7.086;2023-12-20T12:25:53;6.83;;;1.70;;
68800;SDS011;55784;50.734;7.086;2023-12-20T12:28:20;8.02;;;1.83;;
68800;SDS011;55784;50.734;7.086;2023-12-20T12:30:58;8.60;;;1.90;;
68800;SDS011;55784;50.734;7.086;2023-12-20T12:33:24;12.77;;;2.00;;
68800;SDS011;55784;50.734;7.086;2023-12-20T12:35:51;7.53;;;1.80;;
68800;SDS011;55784;50.734;7.086;2023-12-20T12:38:19;9.50;;;2.00;;
68800;SDS011;55784;50.734;7.086;2023-12-20T12:40:45;10.60;;;2.00;;
68800;SDS011;55784;50.734;7.086;2023-12-20T12:43:11;10.90;;;2.53;;
68800;SDS011;55784;50.734;7.086;2023-12-20T12:45:37;9.77;;;2.05;;
68800;SDS011;55784;50.734;7.086;2023-12-20T12:48:03;11.50;;;2.10;;
68800;SDS011;55784;50.734;7.086;2023-12-20T12:50:28;9.95;;;2.35;;
68800;SDS011;55784;50.734;7.086;2023-12-20T12:52:55;8.55;;;1.90;;
68800;SDS011;55784;50.734;7.086;2023-12-20T12:55:20;8.23;;;2.10;;
68800;SDS011;55784;50.734;7.086;2023-12-20T12:57:46;11.48;;;2.33;;
68800;SDS011;55784;50.734;7.086;2023-12-20T13:00:11;11.30;;;2.13;;
68800;SDS011;55784;50.734;7.086;2023-12-20T13:02:37;9.60;;;2.30;;
68800;SDS011;55784;50.734;7.086;2023-12-20T13:05:03;10.20;;;2.10;;
68800;SDS011;55784;50.734;7.086;2023-12-20T13:07:29;7.25;;;1.83;;
68800;SDS011;55784;50.734;7.086;2023-12-20T13:09:55;10.65;;;2.50;;
68800;SDS011;55784;50.734;7.086;2023-12-20T13:12:20;11.20;;;2.60;;
68800;SDS011;55784;50.734;7.086;2023-12-20T13:14:46;9.00;;;2.40;;
68800;SDS011;55784;50.734;7.086;2023-12-20T13:17:12;7.90;;;2.20;;
68800;SDS011;55784;50.734;7.086;2023-12-20T13:19:37;10.77;;;2.72;;
68800;SDS011;55784;50.734;7.086;2023-12-20T13:22:03;12.53;;;2.80;;
68800;SDS011;55784;50.734;7.086;2023-12-20T13:24:28;10.47;;;2.40;;
68800;SDS011;55784;50.734;7.086;2023-12-20T13:26:54;12.40;;;2.50;;
68800;SDS011;55784;50.734;7.086;2023-12-20T13:29:20;15.37;;;5.30;;
68800;SDS011;55784;50.734;7.086;2023-12-20T13:31:45;13.27;;;2.47;;
68800;SDS011;55784;50.734;7.086;2023-12-20T13:34:11;13.85;;;2.58;;
68800;SDS011;55784;50.734;7.086;2023-12-20T13:36:37;10.32;;;2.72;;
68800;SDS011;55784;50.734;7.086;2023-12-20T13:39:03;13.25;;;2.63;;
68800;SDS011;55784;50.734;7.086;2023-12-20T13:41:30;11.75;;;2.45;;
68800;SDS011;55784;50.734;7.086;2023-12-20T13:43:55;9.03;;;2.33;;
68800;SDS011;55784;50.734;7.086;2023-12-20T13:46:21;13.37;;;2.40;;
68800;SDS011;55784;50.734;7.086;2023-12-20T13:48:46;8.53;;;2.33;;
68800;SDS011;55784;50.734;7.086;2023-12-20T13:51:11;8.57;;;2.38;;
68800;SDS011;55784;50.734;7.086;2023-12-20T13:53:37;8.07;;;2.53;;
68800;SDS011;55784;50.734;7.086;2023-12-20T13:56:03;10.30;;;2.45;;
68800;SDS011;55784;50.734;7.086;2023-12-20T13:58:29;9.47;;;2.27;;
68800;SDS011;55784;50.734;7.086;2023-12-20T14:00:54;7.30;;;2.60;;
68800;SDS011;55784;50.734;7.086;2023-12-20T14:03:19;9.23;;;2.10;;
68800;SDS011;55784;50.734;7.086;2023-12-20T14:05:45;9.23;;;2.00;;
68800;SDS011;55784;50.734;7.086;2023-12-20T14:08:11;7.93;;;2.20;;
68800;SDS011;55784;50.734;7.086;2023-12-20T14:10:36;9.52;;;2.42;;
68800;SDS011;55784;50.734;7.086;2023-12-20T14:13:03;7.47;;;2.33;;
68800;SDS011;55784;50.734;7.086;2023-12-20T14:15:30;9.88;;;2.45;;
68800;SDS011;55784;50.734;7.086;2023-12-20T14:17:55;8.98;;;2.92;;
68800;SDS011;55784;50.734;7.086;2023-12-20T14:20:21;8.25;;;2.20;;
68800;SDS011;55784;50.734;7.086;2023-12-20T14:22:46;9.00;;;1.90;;
68800;SDS011;55784;50.734;7.086;2023-12-20T14:25:12;11.20;;;1.80;;
68800;SDS011;55784;50.734;7.086;2023-12-20T14:27:42;9.23;;;1.70;;
68800;SDS011;55784;50.734;7.086;2023-12-20T14:30:08;6.40;;;1.50;;
68800;SDS011;55784;50.734;7.086;2023-12-20T14:32:34;6.77;;;1.50;;
68800;SDS011;55784;50.734;7.086;2023-12-20T14:35:02;7.70;;;1.65;;
68800;SDS011;55784;50.734;7.086;2023-12-20T14:37:29;6.60;;;1.20;;
68800;SDS011;55784;50.734;7.086;2023-12-20T14:39:54;5.37;;;1.20;;
68800;SDS011;55784;50.734;7.086;2023-12-20T14:42:19;5.83;;;0.90;;
68800;SDS011;55784;50.734;7.086;2023-12-20T14:44:45;4.70;;;1.23;;
68800;SDS011;55784;50.734;7.086;2023-12-20T14:47:10;5.23;;;1.00;;